createdAt,value
2023-05-21T00:01:37.159Z,15.25
2023-05-21T00:04:06.254Z,14.98
2023-05-21T00:06:36.205Z,16.75
2023-05-21T00:09:04.081Z,13.43
2023-05-21T00:11:31.209Z,13.00
2023-05-21T00:13:58.360Z,13.20
2023-05-21T00:16:25.516Z,17.45
2023-05-21T00:18:54.542Z,13.82
2023-05-21T00:21:26.291Z,16.75
2023-05-21T00:23:56.931Z,18.10
2023-05-21T00:26:26.940Z,14.15
2023-05-21T00:28:57.076Z,14.55
2023-05-21T00:31:24.112Z,17.55
2023-05-21T00:33:51.073Z,14.88
2023-05-21T00:36:18.002Z,15.25
2023-05-21T00:38:45.697Z,14.65
2023-05-21T00:41:12.952Z,14.52
2023-05-21T00:43:42.018Z,19.80
2023-05-21T00:46:16.575Z,14.63
2023-05-21T00:48:47.595Z,15.25
2023-05-21T00:51:14.942Z,15.05
2023-05-21T00:53:42.062Z,18.17
2023-05-21T00:56:08.967Z,15.73
2023-05-21T00:58:35.881Z,14.05
2023-05-21T01:01:03.824Z,16.20
2023-05-21T01:03:31.064Z,16.80
2023-05-21T01:06:00.741Z,17.75
2023-05-21T01:08:28.808Z,16.00
2023-05-21T01:10:56.131Z,15.85
2023-05-21T01:13:23.271Z,17.33
2023-05-21T01:15:50.534Z,18.50
2023-05-21T01:18:20.154Z,19.00
2023-05-21T01:20:50.327Z,16.17
2023-05-21T01:23:17.712Z,23.83
2023-05-21T01:25:44.821Z,17.20
2023-05-21T01:28:12.135Z,14.80
2023-05-21T01:30:40.071Z,16.35
2023-05-21T01:33:28.476Z,17.02
2023-05-21T01:36:05.668Z,20.10
2023-05-21T01:38:43.024Z,15.85
2023-05-21T01:41:13.475Z,14.60
2023-05-21T01:43:42.316Z,14.32
2023-05-21T01:46:11.098Z,15.30
2023-05-21T01:48:38.195Z,15.65
2023-05-21T01:51:05.973Z,16.48
2023-05-21T01:53:32.939Z,14.18
2023-05-21T01:56:00.777Z,16.73
2023-05-21T01:58:27.770Z,14.38
2023-05-21T02:00:54.746Z,16.23
2023-05-21T02:03:22.063Z,18.50
2023-05-21T02:05:49.328Z,15.32
2023-05-21T02:08:16.323Z,18.52
2023-05-21T02:10:43.248Z,15.55
2023-05-21T02:13:10.185Z,23.00
2023-05-21T02:15:38.967Z,20.05
2023-05-21T02:18:06.144Z,15.70
2023-05-21T02:20:33.171Z,15.48
2023-05-21T02:23:00.180Z,14.13
2023-05-21T02:25:27.126Z,19.25
2023-05-21T02:27:56.762Z,14.13
2023-05-21T02:30:23.934Z,16.58
2023-05-21T02:32:50.923Z,17.50
2023-05-21T02:35:17.925Z,16.52
2023-05-21T02:37:45.280Z,16.15
2023-05-21T02:40:12.656Z,17.40
2023-05-21T02:42:40.509Z,19.63
2023-05-21T02:45:10.435Z,21.15
2023-05-21T02:47:39.253Z,20.60
2023-05-21T02:50:08.205Z,18.08
2023-05-21T02:52:40.075Z,21.90
2023-05-21T02:55:07.655Z,21.27
2023-05-21T02:57:34.519Z,26.80
2023-05-21T03:00:01.692Z,18.17
2023-05-21T03:02:30.318Z,16.63
2023-05-21T03:04:57.606Z,15.68
2023-05-21T03:07:24.810Z,17.98
2023-05-21T03:09:52.179Z,18.52
2023-05-21T03:12:19.199Z,16.92
2023-05-21T03:14:46.559Z,20.45
2023-05-21T03:17:17.210Z,17.38
2023-05-21T03:19:44.537Z,22.80
2023-05-21T03:22:11.664Z,23.35
2023-05-21T03:24:42.246Z,19.58
2023-05-21T03:27:09.341Z,19.92
2023-05-21T03:29:36.413Z,23.20
2023-05-21T03:32:04.494Z,25.25
2023-05-21T03:34:34.610Z,28.08
2023-05-21T03:37:02.933Z,22.42
2023-05-21T03:39:31.016Z,22.02
2023-05-21T03:41:58.903Z,21.58
2023-05-21T03:44:35.726Z,19.92
2023-05-21T03:47:27.163Z,19.45
2023-05-21T03:49:54.690Z,22.77
2023-05-21T03:52:21.683Z,19.05
2023-05-21T03:54:48.825Z,20.30
2023-05-21T03:57:16.452Z,18.15
2023-05-21T03:59:44.152Z,16.52
2023-05-21T04:02:11.297Z,17.63
2023-05-21T04:04:38.491Z,18.20
2023-05-21T04:07:05.763Z,21.65
2023-05-21T04:09:33.902Z,19.50
2023-05-21T04:12:03.162Z,16.60
2023-05-21T04:14:30.694Z,21.35
2023-05-21T04:16:57.732Z,19.50
2023-05-21T04:19:24.929Z,19.17
2023-05-21T04:21:51.898Z,21.67
2023-05-21T04:24:19.308Z,16.73
2023-05-21T04:26:56.208Z,18.63
2023-05-21T04:29:23.582Z,18.10
2023-05-21T04:31:51.190Z,18.10
2023-05-21T04:34:18.944Z,20.75
2023-05-21T04:36:46.353Z,19.25
2023-05-21T04:39:14.888Z,19.40
2023-05-21T04:41:42.354Z,18.45
2023-05-21T04:44:09.749Z,16.88
2023-05-21T04:46:39.663Z,21.52
2023-05-21T04:49:10.453Z,20.98
2023-05-21T04:51:38.995Z,21.52
2023-05-21T04:54:06.292Z,19.13
2023-05-21T04:56:34.606Z,20.65
2023-05-21T04:59:05.228Z,19.27
2023-05-21T05:01:35.502Z,16.40
2023-05-21T05:04:02.822Z,16.88
2023-05-21T05:06:31.239Z,18.20
2023-05-21T05:08:58.350Z,15.73
2023-05-21T05:11:26.830Z,20.17
2023-05-21T05:13:54.258Z,16.77
2023-05-21T05:16:25.780Z,16.92
2023-05-21T05:18:56.467Z,18.25
2023-05-21T05:21:24.216Z,17.38
2023-05-21T05:23:51.456Z,21.58
2023-05-21T05:26:23.203Z,18.38
2023-05-21T05:28:50.244Z,15.63
2023-05-21T05:31:19.522Z,18.42
2023-05-21T05:33:54.535Z,14.27
2023-05-21T05:36:28.758Z,18.80
2023-05-21T05:38:56.332Z,17.45
2023-05-21T05:41:23.511Z,19.25
2023-05-21T05:43:50.946Z,18.58
2023-05-21T05:46:19.911Z,19.90
2023-05-21T05:48:47.816Z,17.70
2023-05-21T05:51:15.625Z,24.27
2023-05-21T05:53:43.021Z,21.73
2023-05-21T05:56:11.422Z,20.48
2023-05-21T05:58:39.618Z,20.85
2023-05-21T06:01:10.083Z,17.88
2023-05-21T06:03:37.567Z,26.02
2023-05-21T06:06:13.796Z,21.08
2023-05-21T06:08:41.447Z,30.73
2023-05-21T06:11:08.651Z,29.88
2023-05-21T06:13:36.006Z,27.85
2023-05-21T06:16:06.604Z,31.42
2023-05-21T06:18:34.203Z,29.83
2023-05-21T06:21:01.627Z,36.50
2023-05-21T06:23:29.397Z,31.15
2023-05-21T06:25:57.000Z,36.53
2023-05-21T06:28:26.503Z,32.88
2023-05-21T06:30:54.751Z,38.60
2023-05-21T06:33:23.493Z,34.75
2023-05-21T06:35:50.977Z,34.08
2023-05-21T06:38:18.431Z,39.70
2023-05-21T06:40:47.598Z,38.03
2023-05-21T06:43:24.808Z,33.28
2023-05-21T06:46:11.504Z,37.97
2023-05-21T06:48:40.602Z,36.47
2023-05-21T06:51:08.227Z,32.78
2023-05-21T06:53:35.814Z,30.92
2023-05-21T06:56:03.578Z,37.90
2023-05-21T06:58:42.560Z,31.60
2023-05-21T07:01:12.268Z,31.27
2023-05-21T07:03:40.231Z,30.42
2023-05-21T07:06:08.940Z,31.73
2023-05-21T07:08:36.411Z,40.22
2023-05-21T07:11:04.978Z,38.47
2023-05-21T07:13:32.960Z,30.17
2023-05-21T07:16:00.164Z,35.65
2023-05-21T07:18:27.904Z,34.80
2023-05-21T07:20:55.424Z,38.95
2023-05-21T07:23:23.091Z,43.13
2023-05-21T07:25:50.404Z,36.78
2023-05-21T07:28:18.600Z,38.70
2023-05-21T07:30:46.270Z,36.85
2023-05-21T07:33:20.760Z,35.90
2023-05-21T07:35:48.903Z,35.03
2023-05-21T07:38:16.695Z,41.05
2023-05-21T07:40:44.067Z,38.75
2023-05-21T07:43:13.890Z,38.38
2023-05-21T07:45:41.958Z,34.40
2023-05-21T07:48:10.095Z,38.33
2023-05-21T07:50:45.440Z,35.15
2023-05-21T07:53:12.937Z,36.88
2023-05-21T07:55:47.633Z,38.97
2023-05-21T07:58:19.105Z,38.05
2023-05-21T08:00:48.062Z,40.58
2023-05-21T08:03:18.740Z,32.78
2023-05-21T08:05:49.347Z,32.80
2023-05-21T08:08:18.036Z,34.38
2023-05-21T08:10:47.314Z,36.15
2023-05-21T08:13:16.838Z,45.70
2023-05-21T08:15:47.361Z,37.42
2023-05-21T08:18:15.019Z,39.67
2023-05-21T08:20:43.787Z,37.85
2023-05-21T08:23:12.240Z,37.03
2023-05-21T08:25:50.186Z,36.33
2023-05-21T08:28:18.534Z,38.63
2023-05-21T08:30:46.773Z,36.83
2023-05-21T08:33:15.072Z,38.03
2023-05-21T08:35:42.854Z,35.60
2023-05-21T08:41:23.671Z,32.13
2023-05-21T08:44:06.650Z,36.63
2023-05-21T08:47:06.201Z,31.50
2023-05-21T08:49:37.655Z,37.17
2023-05-21T08:52:05.834Z,29.13
2023-05-21T08:54:33.456Z,29.17
2023-05-21T08:57:00.809Z,33.50
2023-05-21T08:59:28.254Z,25.27
2023-05-21T09:01:58.004Z,32.15
2023-05-21T09:04:31.982Z,27.30
2023-05-21T09:07:04.104Z,27.15
2023-05-21T09:10:00.167Z,37.88
2023-05-21T09:12:27.784Z,23.05
2023-05-21T09:14:58.614Z,27.77
2023-05-21T09:17:30.667Z,26.85
2023-05-21T09:20:19.125Z,24.73
2023-05-21T09:22:52.418Z,32.88
2023-05-21T09:25:23.524Z,23.60
2023-05-21T09:27:51.111Z,25.60
2023-05-21T09:30:23.599Z,24.00
2023-05-21T09:33:00.182Z,25.23
2023-05-21T09:35:27.993Z,25.15
2023-05-21T09:37:58.053Z,27.35
2023-05-21T09:40:26.117Z,24.08
2023-05-21T09:42:54.181Z,28.90
2023-05-21T09:45:22.406Z,23.17
2023-05-21T09:47:52.928Z,26.55
2023-05-21T09:50:27.300Z,27.80
2023-05-21T09:52:55.644Z,28.40
2023-05-21T09:55:23.063Z,25.98
2023-05-21T09:57:51.083Z,28.20
2023-05-21T10:00:20.218Z,25.38
2023-05-21T10:02:51.264Z,28.30
2023-05-21T10:05:18.316Z,27.20
2023-05-21T10:07:52.816Z,22.33
2023-05-21T10:10:21.256Z,28.77
2023-05-21T10:12:54.803Z,24.38
2023-05-21T10:15:23.844Z,26.48
2023-05-21T10:17:50.864Z,26.67
2023-05-21T10:20:17.852Z,21.92
2023-05-21T10:22:44.924Z,26.40
2023-05-21T10:25:13.421Z,21.10
2023-05-21T10:27:40.322Z,27.08
2023-05-21T10:30:07.603Z,19.90
2023-05-21T10:32:34.874Z,25.13
2023-05-21T10:35:02.637Z,24.55
2023-05-21T10:37:29.784Z,21.23
2023-05-21T10:39:56.857Z,18.23
2023-05-21T10:42:29.920Z,20.92
2023-05-21T10:45:35.145Z,22.33
2023-05-21T10:48:20.353Z,20.85
2023-05-21T10:51:26.829Z,21.45
2023-05-21T10:54:05.874Z,19.42
2023-05-21T10:56:45.040Z,23.75
2023-05-21T10:59:22.379Z,19.75
2023-05-21T11:01:52.928Z,19.85
2023-05-21T11:04:27.155Z,18.85
2023-05-21T11:06:54.974Z,20.92
2023-05-21T11:09:21.932Z,19.48
2023-05-21T11:11:52.860Z,17.35
2023-05-21T11:14:26.275Z,18.90
2023-05-21T11:16:53.762Z,19.65
2023-05-21T11:19:21.138Z,20.30
2023-05-21T11:21:51.441Z,22.13
2023-05-21T11:24:21.461Z,17.73
2023-05-21T11:26:48.358Z,21.65
2023-05-21T11:29:15.587Z,21.02
2023-05-21T11:31:49.623Z,19.20
2023-05-21T11:34:28.626Z,18.17
2023-05-21T11:37:23.260Z,22.17
2023-05-21T11:39:56.032Z,21.73
2023-05-21T11:42:39.262Z,25.17
2023-05-21T11:45:07.275Z,25.00
2023-05-21T11:47:34.365Z,21.70
2023-05-21T11:50:02.444Z,21.00
2023-05-21T11:52:30.574Z,22.75
2023-05-21T11:54:58.224Z,22.10
2023-05-21T11:57:30.690Z,20.20
2023-05-21T12:00:03.236Z,21.10
2023-05-21T12:02:39.855Z,27.50
2023-05-21T12:05:07.282Z,20.42
2023-05-21T12:07:34.258Z,27.20
2023-05-21T12:10:01.366Z,19.60
2023-05-21T12:12:38.491Z,24.02
2023-05-21T12:15:10.379Z,19.77
2023-05-21T12:17:37.512Z,21.05
2023-05-21T12:20:07.560Z,20.38
2023-05-21T12:22:34.494Z,22.88
2023-05-21T12:25:01.634Z,23.13
2023-05-21T12:27:28.642Z,21.75
2023-05-21T12:29:55.738Z,25.52
2023-05-21T12:32:22.729Z,25.55
2023-05-21T12:34:50.292Z,21.52
2023-05-21T12:37:24.354Z,21.38
2023-05-21T12:39:56.348Z,23.55
2023-05-21T12:42:27.607Z,21.25
2023-05-21T12:44:54.564Z,19.92
2023-05-21T12:47:23.733Z,25.13
2023-05-21T12:49:53.104Z,28.63
2023-05-21T12:52:21.917Z,23.05
2023-05-21T12:54:52.935Z,20.30
2023-05-21T12:57:21.346Z,24.92
2023-05-21T12:59:56.738Z,19.35
2023-05-21T13:02:27.485Z,20.85
2023-05-21T13:05:01.644Z,24.40
2023-05-21T13:07:30.598Z,21.75
2023-05-21T13:09:57.547Z,19.98
2023-05-21T13:12:26.109Z,21.10
2023-05-21T13:14:55.908Z,26.08
2023-05-21T13:17:23.316Z,18.52
2023-05-21T13:20:10.207Z,18.88
2023-05-21T13:22:42.673Z,17.35
2023-05-21T13:25:11.207Z,24.30
2023-05-21T13:27:38.968Z,24.42
2023-05-21T13:30:06.763Z,21.85
2023-05-21T13:32:34.007Z,18.05
2023-05-21T13:35:01.003Z,19.13
2023-05-21T13:37:28.007Z,25.77
2023-05-21T13:40:54.917Z,18.27
2023-05-21T13:43:21.860Z,20.00
2023-05-21T13:45:49.822Z,18.75
2023-05-21T13:48:17.328Z,18.95
2023-05-21T13:50:44.360Z,16.85
2023-05-21T13:53:11.282Z,20.23
2023-05-21T13:55:38.345Z,16.88
2023-05-21T13:58:05.355Z,16.80
2023-05-21T14:00:32.337Z,17.38
2023-05-21T14:02:59.459Z,17.95
2023-05-21T14:05:26.508Z,16.30
2023-05-21T14:07:53.482Z,17.73
2023-05-21T14:10:20.750Z,19.77
2023-05-21T14:12:48.585Z,31.02
2023-05-21T14:15:16.181Z,14.00
2023-05-21T14:17:43.115Z,14.07
2023-05-21T14:20:10.542Z,16.75
2023-05-21T14:22:39.008Z,18.35
2023-05-21T14:25:06.416Z,12.85
2023-05-21T14:27:33.457Z,12.23
2023-05-21T14:30:00.364Z,14.10
2023-05-21T14:32:27.426Z,11.32
2023-05-21T14:34:54.426Z,15.50
2023-05-21T14:37:21.336Z,11.60
2023-05-21T14:39:48.291Z,10.10
2023-05-21T14:42:15.236Z,10.30
2023-05-21T14:44:42.252Z,9.85
2023-05-21T14:47:09.188Z,8.27
2023-05-21T14:49:36.248Z,9.23
2023-05-21T14:52:03.192Z,7.75
2023-05-21T14:54:30.126Z,7.93
2023-05-21T14:56:57.006Z,7.68
2023-05-21T14:59:23.961Z,9.05
2023-05-21T15:01:50.990Z,10.30
2023-05-21T15:04:18.036Z,7.97
2023-05-21T15:06:44.933Z,7.53
2023-05-21T15:09:11.949Z,8.32
2023-05-21T15:11:40.203Z,10.85
2023-05-21T15:14:07.167Z,8.65
2023-05-21T15:16:34.151Z,8.60
2023-05-21T15:19:01.318Z,8.85
2023-05-21T15:21:28.376Z,10.38
2023-05-21T15:23:55.436Z,8.65
2023-05-21T15:26:22.845Z,7.68
2023-05-21T15:28:49.815Z,9.00
2023-05-21T15:31:17.102Z,12.30
2023-05-21T15:33:44.136Z,8.88
2023-05-21T15:36:11.275Z,6.28
2023-05-21T15:38:38.266Z,8.32
2023-05-21T15:41:06.391Z,8.60
2023-05-21T15:43:33.348Z,6.82
2023-05-21T15:46:00.444Z,7.05
2023-05-21T15:48:27.577Z,8.80
2023-05-21T15:50:54.614Z,6.32
2023-05-21T15:53:21.738Z,5.50
2023-05-21T15:55:49.065Z,6.63
2023-05-21T15:58:18.210Z,5.93
2023-05-21T16:00:47.026Z,6.45
2023-05-21T16:03:14.269Z,10.98
2023-05-21T16:05:42.406Z,6.30
2023-05-21T16:08:11.537Z,8.00
2023-05-21T16:10:44.175Z,8.48
2023-05-21T16:13:13.005Z,6.70
2023-05-21T16:15:42.375Z,8.27
2023-05-21T16:18:09.983Z,11.07
2023-05-21T16:20:37.698Z,15.13
2023-05-21T16:23:06.497Z,8.30
2023-05-21T16:25:35.722Z,8.85
2023-05-21T16:28:03.602Z,10.13
2023-05-21T16:30:30.758Z,13.15
2023-05-21T16:32:57.879Z,8.50
2023-05-21T16:35:25.046Z,9.55
2023-05-21T16:37:52.083Z,10.55
2023-05-21T16:40:20.335Z,15.45
2023-05-21T16:42:47.448Z,16.75
2023-05-21T16:45:20.502Z,17.27
2023-05-21T16:47:51.342Z,17.20
2023-05-21T16:50:19.326Z,16.17
2023-05-21T16:52:46.307Z,12.93
2023-05-21T16:55:13.334Z,14.60
2023-05-21T16:57:40.298Z,14.23
2023-05-21T17:00:07.958Z,16.90
2023-05-21T17:02:35.108Z,16.05
2023-05-21T17:05:02.155Z,14.90
2023-05-21T17:07:29.170Z,13.77
2023-05-21T17:09:56.186Z,15.35
2023-05-21T17:12:23.170Z,16.45
2023-05-21T17:14:50.210Z,14.98
2023-05-21T17:17:18.088Z,10.77
2023-05-21T17:19:45.197Z,10.07
2023-05-21T17:22:12.162Z,12.75
2023-05-21T17:24:39.166Z,9.40
2023-05-21T17:27:06.530Z,9.02
2023-05-21T17:29:33.696Z,7.60
2023-05-21T17:32:00.878Z,8.10
2023-05-21T17:34:30.417Z,7.88
2023-05-21T17:36:58.071Z,7.28
2023-05-21T17:39:25.454Z,9.55
2023-05-21T17:41:52.580Z,11.10
2023-05-21T17:44:19.687Z,13.27
2023-05-21T17:46:46.867Z,12.88
2023-05-21T17:49:13.892Z,15.32
2023-05-21T17:51:41.064Z,10.57
2023-05-21T17:54:10.715Z,15.02
2023-05-21T17:56:40.588Z,10.15
2023-05-21T17:59:08.317Z,13.98
2023-05-21T18:01:35.754Z,14.27
2023-05-21T18:04:03.341Z,17.13
2023-05-21T18:06:31.217Z,9.10
2023-05-21T18:08:58.325Z,13.18
2023-05-21T18:11:26.259Z,11.80
2023-05-21T18:13:53.667Z,11.65
2023-05-21T18:16:20.941Z,11.13
2023-05-21T18:18:47.991Z,14.40
2023-05-21T18:21:14.970Z,13.38
2023-05-21T18:23:41.928Z,9.10
2023-05-21T18:26:08.899Z,9.95
2023-05-21T18:28:35.923Z,8.90
2023-05-21T18:31:04.408Z,8.30
2023-05-21T18:33:31.430Z,10.52
2023-05-21T18:35:58.388Z,8.80
2023-05-21T18:38:25.769Z,10.15
2023-05-21T18:40:52.849Z,11.30
2023-05-21T18:43:19.930Z,11.65
2023-05-21T18:45:47.016Z,9.70
2023-05-21T18:48:14.112Z,10.85
2023-05-21T18:50:41.486Z,5.95
2023-05-21T18:53:08.471Z,5.43
2023-05-21T18:55:35.546Z,7.25
2023-05-21T18:58:02.554Z,7.80
2023-05-21T19:00:29.674Z,13.02
2023-05-21T19:02:56.720Z,10.90
2023-05-21T19:05:23.880Z,7.40
2023-05-21T19:07:50.971Z,9.88
2023-05-21T19:10:18.051Z,16.63
2023-05-21T19:12:45.840Z,7.88
2023-05-21T19:15:12.892Z,5.35
2023-05-21T19:17:40.051Z,6.53
2023-05-21T19:20:08.480Z,6.38
2023-05-21T19:22:37.081Z,7.07
2023-05-21T19:25:04.522Z,8.18
2023-05-21T19:27:31.537Z,7.50
2023-05-21T19:29:58.565Z,7.43
2023-05-21T19:32:25.560Z,6.57
2023-05-21T19:34:52.819Z,7.82
2023-05-21T19:37:19.789Z,10.75
2023-05-21T19:39:50.019Z,13.40
2023-05-21T19:42:17.564Z,9.95
2023-05-21T19:44:44.628Z,5.85
2023-05-21T19:47:11.537Z,10.30
2023-05-21T19:49:38.486Z,7.78
2023-05-21T19:52:05.763Z,9.48
2023-05-21T19:54:32.704Z,8.43
2023-05-21T19:57:02.163Z,8.35
2023-05-21T19:59:29.131Z,6.53
2023-05-21T20:01:56.163Z,7.38
2023-05-21T20:04:23.272Z,7.43
2023-05-21T20:06:50.310Z,9.63
2023-05-21T20:09:22.704Z,6.43
2023-05-21T20:11:49.874Z,8.57
2023-05-21T20:14:16.916Z,7.80
2023-05-21T20:16:47.022Z,10.80
2023-05-21T20:19:15.355Z,8.43
2023-05-21T20:21:42.522Z,12.50
2023-05-21T20:24:11.339Z,10.65
2023-05-21T20:26:40.040Z,8.15
2023-05-21T20:29:08.119Z,9.40
2023-05-21T20:31:35.248Z,12.90
2023-05-21T20:34:07.092Z,10.38
2023-05-21T20:36:35.225Z,10.63
2023-05-21T20:39:02.544Z,12.38
2023-05-21T20:41:38.813Z,11.48
2023-05-21T20:44:06.232Z,13.60
2023-05-21T20:46:34.232Z,15.40
2023-05-21T20:49:01.244Z,9.15
2023-05-21T20:51:28.273Z,10.75
2023-05-21T20:53:55.390Z,15.23
2023-05-21T20:56:37.469Z,7.85
2023-05-21T20:59:09.240Z,11.05
2023-05-21T21:01:37.964Z,8.45
2023-05-21T21:04:05.297Z,16.02
2023-05-21T21:06:32.386Z,9.25
2023-05-21T21:08:59.431Z,14.90
2023-05-21T21:11:27.173Z,9.57
2023-05-21T21:13:54.144Z,6.85
2023-05-21T21:16:21.145Z,8.25
2023-05-21T21:18:48.216Z,7.50
2023-05-21T21:21:15.320Z,9.00
2023-05-21T21:23:42.323Z,10.95
2023-05-21T21:26:09.304Z,8.95
2023-05-21T21:28:36.302Z,9.02
2023-05-21T21:31:03.226Z,7.78
2023-05-21T21:33:30.169Z,11.80
2023-05-21T21:35:57.123Z,8.15
2023-05-21T21:38:24.303Z,10.93
2023-05-21T21:40:51.254Z,8.10
2023-05-21T21:43:18.203Z,13.02
2023-05-21T21:45:45.209Z,11.98
2023-05-21T21:48:12.373Z,9.43
2023-05-21T21:50:39.403Z,8.95
2023-05-21T21:53:06.476Z,9.73
2023-05-21T21:55:33.485Z,13.32
2023-05-21T21:58:00.478Z,9.60
2023-05-21T22:00:27.540Z,7.85
2023-05-21T22:02:54.579Z,10.75
2023-05-21T22:05:21.636Z,8.68
2023-05-21T22:07:48.817Z,12.52
2023-05-21T22:10:16.621Z,11.82
2023-05-21T22:12:43.869Z,10.13
2023-05-21T22:15:22.984Z,10.35
2023-05-21T22:17:50.251Z,10.55
2023-05-21T22:20:17.802Z,9.10
2023-05-21T22:22:45.971Z,11.75
2023-05-21T22:25:12.907Z,12.68
2023-05-21T22:27:40.512Z,9.10
2023-05-21T22:30:08.101Z,11.10
2023-05-21T22:32:35.075Z,10.68
2023-05-21T22:35:02.593Z,9.10
2023-05-21T22:37:29.587Z,12.02
2023-05-21T22:39:57.253Z,15.23
2023-05-21T22:42:24.201Z,10.75
2023-05-21T22:44:51.267Z,11.40
2023-05-21T22:47:18.174Z,10.80
2023-05-21T22:49:45.556Z,10.15
2023-05-21T22:52:14.688Z,14.35
2023-05-21T22:54:41.690Z,14.23
2023-05-21T22:57:08.674Z,12.45
2023-05-21T22:59:35.632Z,15.15
2023-05-21T23:02:02.813Z,17.17
2023-05-21T23:04:42.819Z,16.00
2023-05-21T23:07:11.181Z,10.77
2023-05-21T23:09:38.107Z,15.95
2023-05-21T23:12:05.459Z,13.38
2023-05-21T23:14:32.381Z,12.30
2023-05-21T23:17:02.283Z,14.52
2023-05-21T23:19:29.939Z,22.00
2023-05-21T23:21:57.021Z,12.77
2023-05-21T23:24:23.944Z,12.55
2023-05-21T23:26:51.005Z,12.48
2023-05-21T23:29:18.383Z,12.82
2023-05-21T23:31:46.873Z,19.17
2023-05-21T23:34:13.992Z,13.85
2023-05-21T23:36:40.991Z,13.52
2023-05-21T23:39:07.939Z,16.63
2023-05-21T23:41:34.854Z,13.32
2023-05-21T23:44:01.798Z,16.05
2023-05-21T23:46:28.701Z,14.95
2023-05-21T23:48:55.727Z,12.95
2023-05-21T23:51:22.692Z,13.48
2023-05-21T23:53:49.645Z,12.05
2023-05-21T23:56:16.547Z,15.55
2023-05-21T23:58:43.489Z,13.20
